createdAt,value
2019-03-26T00:01:01.508Z,1.50
2019-03-26T00:03:33.453Z,1.52
2019-03-26T00:06:05.388Z,1.50
2019-03-26T00:08:37.233Z,1.65
2019-03-26T00:11:09.319Z,1.13
2019-03-26T00:13:41.325Z,1.20
2019-03-26T00:16:13.275Z,1.83
2019-03-26T00:18:45.385Z,1.63
2019-03-26T00:21:18.278Z,1.67
2019-03-26T00:23:51.142Z,1.50
2019-03-26T00:26:24.239Z,1.22
2019-03-26T00:28:56.088Z,1.93
2019-03-26T00:31:27.914Z,1.50
2019-03-26T00:33:59.694Z,1.07
2019-03-26T00:36:31.787Z,1.27
2019-03-26T00:39:05.264Z,1.37
2019-03-26T00:41:38.450Z,1.57
2019-03-26T00:44:10.482Z,1.37
2019-03-26T00:46:42.470Z,1.82
2019-03-26T00:49:14.480Z,1.63
2019-03-26T00:51:46.678Z,1.85
2019-03-26T00:54:18.865Z,1.23
2019-03-26T00:56:51.202Z,1.90
2019-03-26T00:59:24.319Z,1.20
2019-03-26T01:01:56.552Z,1.80
2019-03-26T01:04:33.064Z,1.17
2019-03-26T01:07:02.033Z,2.72
2019-03-26T01:09:34.381Z,2.10
2019-03-26T01:12:06.438Z,1.60
2019-03-26T01:14:38.263Z,2.00
2019-03-26T01:17:10.235Z,1.80
2019-03-26T01:19:42.084Z,2.53
2019-03-26T01:22:13.971Z,1.83
2019-03-26T01:24:46.829Z,1.47
2019-03-26T01:27:19.239Z,1.90
2019-03-26T01:29:52.051Z,1.43
2019-03-26T01:32:24.728Z,1.02
2019-03-26T01:34:56.640Z,2.40
2019-03-26T01:37:28.501Z,2.23
2019-03-26T01:40:00.693Z,1.67
2019-03-26T01:42:32.543Z,1.92
2019-03-26T01:45:04.919Z,1.60
2019-03-26T01:47:36.994Z,2.15
2019-03-26T01:50:09.108Z,1.37
2019-03-26T01:52:40.898Z,1.20
2019-03-26T01:55:12.803Z,1.80
2019-03-26T01:57:44.658Z,1.47
2019-03-26T02:00:16.661Z,1.83
2019-03-26T02:02:48.597Z,1.80
2019-03-26T02:05:21.559Z,1.20
2019-03-26T02:07:53.670Z,1.63
2019-03-26T02:10:25.450Z,2.80
2019-03-26T02:12:57.245Z,1.60
2019-03-26T02:15:33.870Z,1.83
2019-03-26T02:18:06.242Z,1.83
2019-03-26T02:20:38.173Z,2.03
2019-03-26T02:23:10.257Z,1.67
2019-03-26T02:25:42.207Z,2.33
2019-03-26T02:28:14.248Z,1.57
2019-03-26T02:30:46.104Z,1.97
2019-03-26T02:33:17.957Z,1.93
2019-03-26T02:35:50.204Z,1.70
2019-03-26T02:38:21.982Z,1.43
2019-03-26T02:40:53.953Z,2.27
2019-03-26T02:43:26.008Z,1.70
2019-03-26T02:45:57.891Z,1.57
2019-03-26T02:48:29.944Z,1.95
2019-03-26T02:51:01.818Z,2.70
2019-03-26T02:53:33.777Z,1.80
2019-03-26T02:56:05.769Z,1.80
2019-03-26T02:58:37.613Z,1.90
2019-03-26T03:01:09.729Z,1.57
2019-03-26T03:03:41.743Z,2.33
2019-03-26T03:06:14.073Z,1.63
2019-03-26T03:08:45.920Z,1.70
2019-03-26T03:11:17.727Z,2.07
2019-03-26T03:13:49.700Z,1.97
2019-03-26T03:16:21.530Z,1.50
2019-03-26T03:18:53.412Z,1.80
2019-03-26T03:21:26.551Z,1.80
2019-03-26T03:23:58.346Z,0.90
2019-03-26T03:26:30.226Z,1.60
2019-03-26T03:29:01.994Z,2.40
2019-03-26T03:31:33.785Z,1.55
2019-03-26T03:34:05.630Z,2.07
2019-03-26T03:36:37.667Z,2.12
2019-03-26T03:39:09.781Z,2.15
2019-03-26T03:41:41.544Z,2.42
2019-03-26T03:44:13.386Z,2.53
2019-03-26T03:46:46.649Z,1.83
2019-03-26T03:49:22.731Z,2.65
2019-03-26T03:51:55.248Z,1.17
2019-03-26T03:54:27.841Z,1.60
2019-03-26T03:57:02.413Z,1.70
2019-03-26T03:59:35.252Z,2.20
2019-03-26T04:02:07.014Z,1.40
2019-03-26T04:04:38.786Z,1.83
2019-03-26T04:07:10.572Z,2.00
2019-03-26T04:09:42.641Z,1.83
2019-03-26T04:12:14.421Z,1.80
2019-03-26T04:14:46.180Z,1.17
2019-03-26T04:17:18.033Z,2.70
2019-03-26T04:19:49.901Z,2.02
2019-03-26T04:22:21.993Z,1.42
2019-03-26T04:24:54.200Z,1.87
2019-03-26T04:27:27.197Z,1.74
2019-03-26T04:29:59.047Z,2.55
2019-03-26T04:32:30.857Z,1.70
2019-03-26T04:35:03.080Z,2.37
2019-03-26T04:37:34.869Z,1.67
2019-03-26T04:40:07.066Z,1.55
2019-03-26T04:42:38.972Z,2.33
2019-03-26T04:45:10.851Z,1.97
2019-03-26T04:47:42.985Z,2.20
2019-03-26T04:50:15.021Z,2.97
2019-03-26T04:52:46.916Z,1.90
2019-03-26T04:55:18.791Z,2.22
2019-03-26T04:57:51.909Z,2.23
2019-03-26T05:00:23.915Z,2.40
2019-03-26T05:02:55.683Z,3.20
2019-03-26T05:05:27.461Z,3.07
2019-03-26T05:07:59.336Z,1.97
2019-03-26T05:10:31.396Z,2.50
2019-03-26T05:13:03.157Z,2.40
2019-03-26T05:15:35.108Z,3.55
2019-03-26T05:18:07.100Z,2.23
2019-03-26T05:20:39.063Z,2.52
2019-03-26T05:23:10.901Z,1.70
2019-03-26T05:25:43.003Z,2.40
2019-03-26T05:28:14.890Z,2.40
2019-03-26T05:30:46.830Z,2.73
2019-03-26T05:33:19.171Z,2.63
2019-03-26T05:35:52.075Z,2.67
2019-03-26T05:38:23.935Z,2.77
2019-03-26T05:40:55.806Z,2.20
2019-03-26T05:43:27.963Z,2.90
2019-03-26T05:45:59.828Z,2.40
2019-03-26T05:48:31.652Z,1.83
2019-03-26T05:51:03.514Z,2.72
2019-03-26T05:53:35.355Z,1.67
2019-03-26T05:56:07.236Z,1.60
2019-03-26T05:58:39.025Z,2.02
2019-03-26T06:01:11.072Z,2.37
2019-03-26T06:03:42.883Z,2.60
2019-03-26T06:06:14.805Z,2.53
2019-03-26T06:08:46.707Z,3.10
2019-03-26T06:11:18.739Z,1.90
2019-03-26T06:13:52.221Z,2.27
2019-03-26T06:16:37.496Z,2.53
2019-03-26T06:18:57.538Z,2.17
2019-03-26T06:21:29.583Z,2.20
2019-03-26T06:24:01.673Z,2.10
2019-03-26T06:26:34.505Z,2.92
2019-03-26T06:29:06.593Z,1.93
2019-03-26T06:31:38.442Z,1.50
2019-03-26T06:34:10.628Z,2.33
2019-03-26T06:36:42.601Z,1.87
2019-03-26T06:39:14.412Z,2.40
2019-03-26T06:41:46.209Z,2.05
2019-03-26T06:44:19.015Z,2.52
2019-03-26T06:46:52.027Z,2.77
2019-03-26T06:49:24.760Z,2.63
2019-03-26T06:51:56.909Z,2.17
2019-03-26T06:54:28.982Z,3.53
2019-03-26T06:57:01.018Z,3.20
2019-03-26T06:59:33.054Z,2.83
2019-03-26T07:02:05.841Z,1.75
2019-03-26T07:04:46.250Z,3.52
2019-03-26T07:07:30.578Z,3.05
2019-03-26T07:09:52.096Z,2.47
2019-03-26T07:12:23.896Z,2.00
2019-03-26T07:14:55.737Z,1.63
2019-03-26T07:17:27.602Z,2.20
2019-03-26T07:19:59.379Z,2.67
2019-03-26T07:22:31.248Z,2.08
2019-03-26T07:25:03.036Z,2.00
2019-03-26T07:27:34.846Z,2.30
2019-03-26T07:30:07.726Z,2.27
2019-03-26T07:32:39.661Z,2.30
2019-03-26T07:35:13.300Z,1.80
2019-03-26T07:37:45.941Z,2.10
2019-03-26T07:40:18.191Z,2.00
2019-03-26T07:42:50.045Z,1.50
2019-03-26T07:45:23.202Z,1.70
2019-03-26T07:47:55.025Z,2.03
2019-03-26T07:50:26.895Z,2.33
2019-03-26T07:52:58.851Z,2.30
2019-03-26T07:55:30.617Z,1.67
2019-03-26T07:58:02.647Z,1.50
2019-03-26T08:00:36.451Z,1.87
2019-03-26T08:03:08.785Z,2.00
2019-03-26T08:05:40.609Z,1.65
2019-03-26T08:08:12.426Z,0.90
2019-03-26T08:10:44.223Z,1.77
2019-03-26T08:13:16.035Z,1.37
2019-03-26T08:15:48.202Z,1.67
2019-03-26T08:18:20.042Z,1.57
2019-03-26T08:20:52.224Z,1.40
2019-03-26T08:23:24.141Z,1.63
2019-03-26T08:25:56.190Z,1.60
2019-03-26T08:28:28.017Z,1.83
2019-03-26T08:30:59.805Z,1.20
2019-03-26T08:33:32.896Z,2.10
2019-03-26T08:36:04.830Z,1.43
2019-03-26T08:38:36.693Z,1.55
2019-03-26T08:41:08.841Z,2.03
2019-03-26T08:43:41.105Z,1.62
2019-03-26T08:46:13.925Z,1.60
2019-03-26T08:48:45.693Z,2.37
2019-03-26T08:51:17.579Z,1.50
2019-03-26T08:53:49.631Z,1.23
2019-03-26T08:56:22.537Z,1.80
2019-03-26T08:58:54.367Z,1.77
2019-03-26T09:01:26.312Z,2.23
2019-03-26T09:03:58.099Z,1.62
2019-03-26T09:06:31.109Z,1.65
2019-03-26T09:09:03.055Z,1.57
2019-03-26T09:11:35.036Z,1.57
2019-03-26T09:14:07.055Z,1.07
2019-03-26T09:16:38.940Z,2.22
2019-03-26T09:19:10.857Z,1.82
2019-03-26T09:21:42.829Z,1.87
2019-03-26T09:24:14.746Z,1.57
2019-03-26T09:26:46.535Z,1.52
2019-03-26T09:29:18.749Z,1.45
2019-03-26T09:31:50.681Z,2.20
2019-03-26T09:34:22.509Z,1.43
2019-03-26T09:36:54.477Z,2.07
2019-03-26T09:39:26.272Z,1.77
2019-03-26T09:41:58.036Z,1.75
2019-03-26T09:44:30.891Z,1.20
2019-03-26T09:47:15.236Z,2.07
2019-03-26T09:49:36.176Z,1.23
2019-03-26T09:52:08.037Z,1.50
2019-03-26T09:54:39.889Z,1.67
2019-03-26T09:57:11.748Z,1.73
2019-03-26T09:59:43.637Z,1.40
2019-03-26T10:02:15.937Z,1.70
2019-03-26T10:04:47.733Z,1.30
2019-03-26T10:07:21.714Z,1.87
2019-03-26T10:09:53.288Z,1.30
2019-03-26T10:12:25.167Z,1.70
2019-03-26T10:14:57.118Z,1.77
2019-03-26T10:17:28.964Z,1.77
2019-03-26T10:20:00.875Z,1.47
2019-03-26T10:22:32.777Z,1.63
2019-03-26T10:25:05.019Z,1.87
2019-03-26T10:27:36.890Z,1.77
2019-03-26T10:30:09.948Z,1.07
2019-03-26T10:32:41.919Z,1.23
2019-03-26T10:35:13.967Z,1.53
2019-03-26T10:37:45.949Z,1.47
2019-03-26T10:40:31.145Z,1.13
2019-03-26T10:43:03.905Z,1.42
2019-03-26T10:45:35.845Z,1.30
2019-03-26T10:48:08.336Z,1.65
2019-03-26T10:50:40.590Z,1.47
2019-03-26T10:53:12.454Z,1.13
2019-03-26T10:55:44.453Z,1.67
2019-03-26T10:58:16.745Z,1.07
2019-03-26T11:00:48.751Z,1.03
2019-03-26T11:03:22.810Z,1.30
2019-03-26T11:05:55.567Z,1.37
2019-03-26T11:08:27.510Z,1.80
2019-03-26T11:10:59.691Z,1.50
2019-03-26T11:13:32.383Z,1.65
2019-03-26T11:16:04.272Z,1.98
2019-03-26T11:18:36.180Z,1.15
2019-03-26T11:21:08.317Z,1.60
2019-03-26T11:23:40.383Z,2.20
2019-03-26T11:26:12.182Z,1.53
2019-03-26T11:28:44.229Z,1.92
2019-03-26T11:31:16.220Z,1.40
2019-03-26T11:33:48.146Z,1.55
2019-03-26T11:36:20.112Z,1.40
2019-03-26T11:38:52.774Z,1.62
2019-03-26T11:41:24.786Z,1.40
2019-03-26T11:43:56.834Z,1.17
2019-03-26T11:46:28.714Z,1.50
2019-03-26T11:49:00.722Z,1.33
2019-03-26T11:51:32.810Z,1.25
2019-03-26T11:54:04.699Z,2.10
2019-03-26T11:56:37.657Z,2.20
2019-03-26T11:59:09.782Z,1.53
2019-03-26T12:01:41.577Z,1.37
2019-03-26T12:04:13.670Z,1.30
2019-03-26T12:06:45.388Z,1.50
2019-03-26T12:09:17.352Z,1.77
2019-03-26T12:11:49.314Z,1.20
2019-03-26T12:14:21.114Z,1.60
2019-03-26T12:16:52.962Z,1.40
2019-03-26T12:19:25.371Z,1.70
2019-03-26T12:21:57.230Z,1.00
2019-03-26T12:24:29.266Z,1.20
2019-03-26T12:27:01.214Z,1.40
2019-03-26T12:29:33.306Z,1.07
2019-03-26T12:32:05.093Z,1.37
2019-03-26T12:34:37.034Z,1.00
2019-03-26T12:37:09.126Z,1.10
2019-03-26T12:39:44.099Z,1.37
2019-03-26T12:42:14.613Z,1.20
2019-03-26T12:44:46.626Z,1.10
2019-03-26T12:47:18.446Z,1.40
2019-03-26T12:49:50.304Z,1.40
2019-03-26T12:52:23.027Z,1.67
2019-03-26T12:54:55.223Z,1.20
2019-03-26T12:57:27.154Z,1.35
2019-03-26T12:59:59.132Z,1.00
2019-03-26T13:02:32.073Z,1.35
2019-03-26T13:05:04.070Z,1.30
2019-03-26T13:07:35.946Z,1.00
2019-03-26T13:10:13.753Z,1.70
2019-03-26T13:12:43.356Z,1.25
2019-03-26T13:15:15.366Z,1.30
2019-03-26T13:17:47.263Z,0.90
2019-03-26T13:20:19.293Z,1.10
2019-03-26T13:22:51.087Z,1.47
2019-03-26T13:25:23.158Z,1.00
2019-03-26T13:27:55.026Z,1.02
2019-03-26T13:30:26.827Z,1.33
2019-03-26T13:32:58.687Z,1.07
2019-03-26T13:35:30.653Z,0.90
2019-03-26T13:38:02.442Z,0.80
2019-03-26T13:40:35.399Z,1.10
2019-03-26T13:43:07.566Z,1.00
2019-03-26T13:45:39.607Z,1.40
2019-03-26T13:48:11.471Z,0.90
2019-03-26T13:50:43.387Z,1.57
2019-03-26T13:53:15.340Z,1.00
2019-03-26T13:55:47.250Z,1.40
2019-03-26T13:58:19.197Z,1.30
2019-03-26T14:00:51.195Z,1.50
2019-03-26T14:03:23.287Z,2.05
2019-03-26T14:05:55.249Z,1.90
2019-03-26T14:08:27.130Z,1.47
2019-03-26T14:10:59.595Z,1.60
2019-03-26T14:13:31.469Z,1.60
2019-03-26T14:16:03.328Z,1.17
2019-03-26T14:18:35.991Z,1.40
2019-03-26T14:21:08.057Z,1.20
2019-03-26T14:23:39.879Z,1.60
2019-03-26T14:26:11.747Z,1.17
2019-03-26T14:28:43.835Z,1.17
2019-03-26T14:31:15.681Z,0.90
2019-03-26T14:33:47.648Z,0.80
2019-03-26T14:36:19.679Z,1.10
2019-03-26T14:38:51.627Z,0.90
2019-03-26T14:41:23.714Z,0.97
2019-03-26T14:43:55.588Z,1.20
2019-03-26T14:46:27.417Z,1.37
2019-03-26T14:48:59.295Z,1.07
2019-03-26T14:51:31.157Z,1.37
2019-03-26T14:54:02.981Z,1.00
2019-03-26T14:56:35.098Z,1.00
2019-03-26T14:59:07.041Z,1.13
2019-03-26T15:01:39.264Z,1.63
2019-03-26T15:04:11.658Z,1.87
2019-03-26T15:06:43.458Z,2.22
2019-03-26T15:09:15.396Z,1.70
2019-03-26T15:11:47.527Z,1.43
2019-03-26T15:14:19.321Z,1.35
2019-03-26T15:16:51.177Z,1.85
2019-03-26T15:19:23.368Z,1.50
2019-03-26T15:21:55.267Z,1.87
2019-03-26T15:24:27.118Z,2.23
2019-03-26T15:26:58.928Z,2.10
2019-03-26T15:29:30.810Z,1.40
2019-03-26T15:32:02.727Z,2.17
2019-03-26T15:34:36.468Z,1.60
2019-03-26T15:37:09.593Z,2.20
2019-03-26T15:39:41.370Z,1.30
2019-03-26T15:42:13.208Z,1.63
2019-03-26T15:44:45.208Z,1.10
2019-03-26T15:47:17.077Z,1.70
2019-03-26T15:49:48.949Z,2.03
2019-03-26T15:52:20.782Z,1.30
2019-03-26T15:54:53.785Z,1.30
2019-03-26T15:57:25.772Z,1.63
2019-03-26T15:59:57.795Z,2.47
2019-03-26T16:02:29.766Z,1.93
2019-03-26T16:05:01.788Z,1.77
2019-03-26T16:07:33.927Z,2.47
2019-03-26T16:10:09.129Z,1.70
2019-03-26T16:12:41.613Z,2.02
2019-03-26T16:15:13.698Z,1.75
2019-03-26T16:17:45.533Z,2.07
2019-03-26T16:20:17.504Z,2.23
2019-03-26T16:22:49.506Z,2.07
2019-03-26T16:25:23.617Z,1.87
2019-03-26T16:27:55.514Z,2.00
2019-03-26T16:30:27.482Z,2.03
2019-03-26T16:32:59.216Z,2.10
2019-03-26T16:35:31.877Z,2.47
2019-03-26T16:38:05.773Z,2.53
2019-03-26T16:40:37.825Z,1.90
2019-03-26T16:43:09.942Z,2.80
2019-03-26T16:45:42.112Z,2.17
2019-03-26T16:48:14.033Z,2.87
2019-03-26T16:50:45.977Z,2.70
2019-03-26T16:53:17.956Z,2.47
2019-03-26T16:55:49.968Z,2.52
2019-03-26T16:58:21.983Z,2.27
2019-03-26T17:00:53.830Z,2.77
2019-03-26T17:03:31.163Z,3.30
2019-03-26T17:05:59.398Z,2.60
2019-03-26T17:08:31.439Z,2.13
2019-03-26T17:11:03.265Z,2.53
2019-03-26T17:13:35.213Z,2.80
2019-03-26T17:16:07.254Z,2.58
2019-03-26T17:18:39.391Z,2.07
2019-03-26T17:21:11.782Z,1.62
2019-03-26T17:23:43.801Z,2.50
2019-03-26T17:26:15.665Z,2.07
2019-03-26T17:28:47.768Z,2.90
2019-03-26T17:31:19.727Z,2.40
2019-03-26T17:33:51.601Z,2.03
2019-03-26T17:36:23.913Z,2.43
2019-03-26T17:38:55.781Z,2.87
2019-03-26T17:41:27.732Z,2.00
2019-03-26T17:43:59.713Z,2.08
2019-03-26T17:46:32.547Z,2.93
2019-03-26T17:49:04.439Z,2.02
2019-03-26T17:51:40.568Z,2.16
2019-03-26T17:54:11.156Z,2.47
2019-03-26T17:56:43.158Z,2.05
2019-03-26T17:59:15.262Z,2.03
2019-03-26T18:01:47.533Z,2.52
2019-03-26T18:04:19.535Z,2.60
2019-03-26T18:06:51.414Z,1.92
2019-03-26T18:09:23.951Z,2.15
2019-03-26T18:11:55.764Z,2.25
2019-03-26T18:14:27.528Z,2.47
2019-03-26T18:16:59.795Z,2.67
2019-03-26T18:19:34.463Z,2.30
2019-03-26T18:22:06.931Z,2.53
2019-03-26T18:24:38.764Z,3.60
2019-03-26T18:27:10.737Z,2.80
2019-03-26T18:29:42.615Z,2.42
2019-03-26T18:32:14.551Z,2.60
2019-03-26T18:34:46.472Z,3.52
2019-03-26T18:37:18.972Z,2.57
2019-03-26T18:39:51.825Z,2.50
2019-03-26T18:42:24.037Z,2.25
2019-03-26T18:44:55.885Z,2.80
2019-03-26T18:47:27.770Z,2.30
2019-03-26T18:50:00.378Z,2.13
2019-03-26T18:52:32.336Z,1.90
2019-03-26T18:55:04.252Z,1.97
2019-03-26T18:57:36.210Z,2.40
2019-03-26T19:00:09.597Z,1.98
2019-03-26T19:02:41.544Z,1.83
2019-03-26T19:05:13.852Z,2.07
2019-03-26T19:07:45.645Z,6.40
2019-03-26T19:10:29.161Z,12.63
2019-03-26T19:13:01.146Z,7.55
2019-03-26T19:15:33.051Z,4.50
2019-03-26T19:18:05.381Z,3.40
2019-03-26T19:20:38.266Z,4.12
2019-03-26T19:23:10.614Z,4.10
2019-03-26T19:25:42.595Z,3.90
2019-03-26T19:28:14.422Z,2.30
2019-03-26T19:30:46.348Z,2.30
2019-03-26T19:33:18.231Z,2.53
2019-03-26T19:35:50.074Z,2.23
2019-03-26T19:38:22.014Z,2.47
2019-03-26T19:40:54.215Z,1.98
2019-03-26T19:43:26.311Z,2.83
2019-03-26T19:45:58.355Z,2.83
2019-03-26T19:48:30.156Z,2.27
2019-03-26T19:51:02.146Z,3.20
2019-03-26T19:53:34.187Z,2.80
2019-03-26T19:56:06.191Z,3.20
2019-03-26T19:58:39.182Z,2.80
2019-03-26T20:01:12.643Z,2.42
2019-03-26T20:03:44.568Z,2.80
2019-03-26T20:06:16.620Z,2.83
2019-03-26T20:08:48.439Z,3.12
2019-03-26T20:11:20.344Z,2.27
2019-03-26T20:17:47.347Z,1.83
2019-03-26T20:20:20.184Z,3.07
2019-03-26T20:22:52.283Z,2.98
2019-03-26T20:25:25.677Z,2.10
2019-03-26T20:27:57.569Z,2.10
2019-03-26T20:30:29.445Z,3.12
2019-03-26T20:33:01.688Z,2.72
2019-03-26T20:35:33.598Z,2.70
2019-03-26T20:38:05.421Z,2.75
2019-03-26T20:40:37.817Z,2.47
2019-03-26T20:43:09.644Z,2.00
2019-03-26T20:45:41.953Z,2.40
2019-03-26T20:48:14.014Z,2.43
2019-03-26T20:50:45.875Z,1.83
2019-03-26T20:53:17.855Z,2.30
2019-03-26T20:55:54.438Z,1.83
2019-03-26T20:58:24.057Z,2.60
2019-03-26T21:00:56.107Z,2.20
2019-03-26T21:03:27.981Z,2.33
2019-03-26T21:05:59.799Z,2.62
2019-03-26T21:08:31.678Z,2.08
2019-03-26T21:11:03.710Z,1.77
2019-03-26T21:13:35.531Z,2.83
2019-03-26T21:16:07.513Z,2.00
2019-03-26T21:18:40.915Z,2.60
2019-03-26T21:21:12.977Z,2.30
2019-03-26T21:23:44.791Z,2.23
2019-03-26T21:26:18.731Z,1.90
2019-03-26T21:28:50.657Z,2.20
2019-03-26T21:31:22.448Z,3.30
2019-03-26T21:33:55.252Z,2.50
2019-03-26T21:36:27.433Z,2.23
2019-03-26T21:38:59.483Z,2.20
2019-03-26T21:41:31.357Z,2.85
2019-03-26T21:44:04.451Z,1.98
2019-03-26T21:46:36.824Z,2.50
2019-03-26T21:49:09.751Z,2.00
2019-03-26T21:51:41.559Z,2.97
2019-03-26T21:54:13.364Z,2.20
2019-03-26T21:56:45.865Z,2.08
2019-03-26T21:59:17.771Z,3.50
2019-03-26T22:01:49.603Z,2.97
2019-03-26T22:04:21.683Z,2.57
2019-03-26T22:06:53.467Z,2.17
2019-03-26T22:09:25.333Z,2.33
2019-03-26T22:11:57.306Z,2.23
2019-03-26T22:14:29.223Z,2.17
2019-03-26T22:17:01.149Z,2.20
2019-03-26T22:19:33.214Z,2.77
2019-03-26T22:22:05.098Z,2.55
2019-03-26T22:24:36.899Z,2.30
2019-03-26T22:27:09.098Z,2.35
2019-03-26T22:29:40.883Z,2.30
2019-03-26T22:32:12.680Z,2.02
2019-03-26T22:34:44.620Z,3.03
2019-03-26T22:37:16.445Z,2.00
2019-03-26T22:39:48.324Z,2.70
2019-03-26T22:42:20.116Z,2.27
2019-03-26T22:44:52.176Z,4.17
2019-03-26T22:47:23.996Z,2.27
2019-03-26T22:49:57.321Z,2.92
2019-03-26T22:52:29.716Z,1.97
2019-03-26T22:55:01.768Z,2.53
2019-03-26T22:57:33.587Z,1.87
2019-03-26T23:00:07.519Z,2.17
2019-03-26T23:02:41.513Z,1.73
2019-03-26T23:05:14.243Z,2.30
2019-03-26T23:07:46.385Z,1.87
2019-03-26T23:10:19.110Z,1.90
2019-03-26T23:12:50.987Z,2.35
2019-03-26T23:15:25.124Z,2.60
2019-03-26T23:17:56.927Z,2.80
2019-03-26T23:20:28.787Z,2.07
2019-03-26T23:23:00.777Z,2.03
2019-03-26T23:25:32.568Z,2.13
2019-03-26T23:28:04.712Z,2.87
2019-03-26T23:30:36.592Z,2.35
2019-03-26T23:33:08.663Z,2.47
2019-03-26T23:35:41.567Z,2.55
2019-03-26T23:38:13.682Z,2.87
2019-03-26T23:40:45.608Z,2.17
2019-03-26T23:43:17.529Z,2.40
2019-03-26T23:45:49.670Z,2.40
2019-03-26T23:48:21.482Z,1.80
2019-03-26T23:50:53.353Z,2.60
2019-03-26T23:53:26.217Z,2.02
2019-03-26T23:55:58.280Z,2.73
2019-03-26T23:58:30.392Z,2.95
